sensor_id;sensor_type;location;lat;lon;timestamp;P1;durP1;ratioP1;P2;durP2;ratioP2
11303;SDS011;5707;49.588;12.148;2023-04-25T00:00:03;2.17;;;2.08;;
11303;SDS011;5707;49.588;12.148;2023-04-25T00:02:32;1.73;;;1.63;;
11303;SDS011;5707;49.588;12.148;2023-04-25T00:04:59;2.20;;;2.10;;
11303;SDS011;5707;49.588;12.148;2023-04-25T00:07:26;1.98;;;1.83;;
11303;SDS011;5707;49.588;12.148;2023-04-25T00:09:52;2.10;;;2.00;;
11303;SDS011;5707;49.588;12.148;2023-04-25T00:12:17;2.08;;;1.98;;
11303;SDS011;5707;49.588;12.148;2023-04-25T00:14:43;2.17;;;1.98;;
11303;SDS011;5707;49.588;12.148;2023-04-25T00:17:10;1.70;;;1.60;;
11303;SDS011;5707;49.588;12.148;2023-04-25T00:19:36;2.10;;;2.00;;
11303;SDS011;5707;49.588;12.148;2023-04-25T00:22:02;2.25;;;2.15;;
11303;SDS011;5707;49.588;12.148;2023-04-25T00:24:28;3.10;;;1.90;;
11303;SDS011;5707;49.588;12.148;2023-04-25T00:26:54;2.70;;;1.90;;
11303;SDS011;5707;49.588;12.148;2023-04-25T00:29:19;2.00;;;1.90;;
11303;SDS011;5707;49.588;12.148;2023-04-25T00:31:45;2.00;;;1.90;;
11303;SDS011;5707;49.588;12.148;2023-04-25T00:34:10;2.30;;;2.10;;
11303;SDS011;5707;49.588;12.148;2023-04-25T00:36:36;2.03;;;1.92;;
11303;SDS011;5707;49.588;12.148;2023-04-25T00:39:01;2.13;;;1.98;;
11303;SDS011;5707;49.588;12.148;2023-04-25T00:41:29;1.92;;;1.83;;
11303;SDS011;5707;49.588;12.148;2023-04-25T00:43:55;3.13;;;1.90;;
11303;SDS011;5707;49.588;12.148;2023-04-25T00:46:22;2.50;;;2.30;;
11303;SDS011;5707;49.588;12.148;2023-04-25T00:48:48;2.30;;;2.10;;
11303;SDS011;5707;49.588;12.148;2023-04-25T00:51:15;1.90;;;1.80;;
11303;SDS011;5707;49.588;12.148;2023-04-25T00:53:44;2.15;;;2.03;;
11303;SDS011;5707;49.588;12.148;2023-04-25T00:56:10;5.03;;;2.00;;
11303;SDS011;5707;49.588;12.148;2023-04-25T00:58:36;2.33;;;1.95;;
11303;SDS011;5707;49.588;12.148;2023-04-25T01:01:03;2.22;;;2.13;;
11303;SDS011;5707;49.588;12.148;2023-04-25T01:03:29;2.17;;;2.08;;
11303;SDS011;5707;49.588;12.148;2023-04-25T01:05:57;2.30;;;1.90;;
11303;SDS011;5707;49.588;12.148;2023-04-25T01:08:23;2.55;;;2.38;;
11303;SDS011;5707;49.588;12.148;2023-04-25T01:10:52;2.85;;;1.70;;
11303;SDS011;5707;49.588;12.148;2023-04-25T01:13:17;2.90;;;2.60;;
11303;SDS011;5707;49.588;12.148;2023-04-25T01:15:43;2.55;;;2.17;;
11303;SDS011;5707;49.588;12.148;2023-04-25T01:18:09;2.13;;;2.03;;
11303;SDS011;5707;49.588;12.148;2023-04-25T01:20:35;2.20;;;2.10;;
11303;SDS011;5707;49.588;12.148;2023-04-25T01:23:03;2.05;;;1.95;;
11303;SDS011;5707;49.588;12.148;2023-04-25T01:25:32;2.40;;;2.20;;
11303;SDS011;5707;49.588;12.148;2023-04-25T01:27:58;2.50;;;2.25;;
11303;SDS011;5707;49.588;12.148;2023-04-25T01:30:24;2.38;;;2.28;;
11303;SDS011;5707;49.588;12.148;2023-04-25T01:32:51;1.98;;;1.88;;
11303;SDS011;5707;49.588;12.148;2023-04-25T01:35:19;2.00;;;1.90;;
11303;SDS011;5707;49.588;12.148;2023-04-25T01:37:45;1.90;;;1.80;;
11303;SDS011;5707;49.588;12.148;2023-04-25T01:40:11;1.90;;;1.80;;
11303;SDS011;5707;49.588;12.148;2023-04-25T01:42:41;2.33;;;1.98;;
11303;SDS011;5707;49.588;12.148;2023-04-25T01:45:08;3.17;;;2.28;;
11303;SDS011;5707;49.588;12.148;2023-04-25T01:47:35;2.40;;;2.17;;
11303;SDS011;5707;49.588;12.148;2023-04-25T01:50:02;2.00;;;1.90;;
11303;SDS011;5707;49.588;12.148;2023-04-25T01:52:29;2.10;;;2.00;;
11303;SDS011;5707;49.588;12.148;2023-04-25T01:54:55;2.45;;;2.25;;
11303;SDS011;5707;49.588;12.148;2023-04-25T01:57:22;2.13;;;2.03;;
11303;SDS011;5707;49.588;12.148;2023-04-25T01:59:48;2.33;;;2.13;;
11303;SDS011;5707;49.588;12.148;2023-04-25T02:02:14;2.47;;;2.38;;
11303;SDS011;5707;49.588;12.148;2023-04-25T02:04:40;2.60;;;2.35;;
11303;SDS011;5707;49.588;12.148;2023-04-25T02:07:06;2.42;;;2.33;;
11303;SDS011;5707;49.588;12.148;2023-04-25T02:09:31;2.55;;;2.35;;
11303;SDS011;5707;49.588;12.148;2023-04-25T02:11:57;2.40;;;2.30;;
11303;SDS011;5707;49.588;12.148;2023-04-25T02:14:23;2.70;;;2.50;;
11303;SDS011;5707;49.588;12.148;2023-04-25T02:16:48;2.60;;;2.40;;
11303;SDS011;5707;49.588;12.148;2023-04-25T02:19:16;2.47;;;2.28;;
11303;SDS011;5707;49.588;12.148;2023-04-25T02:21:41;2.72;;;2.53;;
11303;SDS011;5707;49.588;12.148;2023-04-25T02:24:07;2.58;;;2.38;;
11303;SDS011;5707;49.588;12.148;2023-04-25T02:26:33;3.10;;;2.53;;
11303;SDS011;5707;49.588;12.148;2023-04-25T02:28:58;2.28;;;2.13;;
11303;SDS011;5707;49.588;12.148;2023-04-25T02:31:24;2.63;;;2.42;;
11303;SDS011;5707;49.588;12.148;2023-04-25T02:33:51;2.22;;;2.10;;
11303;SDS011;5707;49.588;12.148;2023-04-25T02:36:16;3.42;;;3.10;;
11303;SDS011;5707;49.588;12.148;2023-04-25T02:38:42;3.15;;;2.80;;
11303;SDS011;5707;49.588;12.148;2023-04-25T02:41:07;3.33;;;3.03;;
11303;SDS011;5707;49.588;12.148;2023-04-25T02:43:33;2.85;;;2.58;;
11303;SDS011;5707;49.588;12.148;2023-04-25T02:45:58;3.15;;;2.80;;
11303;SDS011;5707;49.588;12.148;2023-04-25T02:48:24;2.60;;;2.50;;
11303;SDS011;5707;49.588;12.148;2023-04-25T02:50:50;3.10;;;2.80;;
11303;SDS011;5707;49.588;12.148;2023-04-25T02:53:15;3.10;;;2.90;;
11303;SDS011;5707;49.588;12.148;2023-04-25T02:55:41;2.90;;;2.70;;
11303;SDS011;5707;49.588;12.148;2023-04-25T02:58:06;3.03;;;2.83;;
11303;SDS011;5707;49.588;12.148;2023-04-25T03:00:32;2.35;;;2.20;;
11303;SDS011;5707;49.588;12.148;2023-04-25T03:02:58;4.55;;;2.42;;
11303;SDS011;5707;49.588;12.148;2023-04-25T03:05:23;2.83;;;2.63;;
11303;SDS011;5707;49.588;12.148;2023-04-25T03:07:49;2.35;;;2.25;;
11303;SDS011;5707;49.588;12.148;2023-04-25T03:10:14;2.90;;;2.70;;
11303;SDS011;5707;49.588;12.148;2023-04-25T03:12:40;2.88;;;2.67;;
11303;SDS011;5707;49.588;12.148;2023-04-25T03:15:05;3.67;;;2.92;;
11303;SDS011;5707;49.588;12.148;2023-04-25T03:17:31;3.00;;;2.80;;
11303;SDS011;5707;49.588;12.148;2023-04-25T03:19:57;2.92;;;2.72;;
11303;SDS011;5707;49.588;12.148;2023-04-25T03:22:23;2.72;;;2.53;;
11303;SDS011;5707;49.588;12.148;2023-04-25T03:24:49;2.78;;;2.63;;
11303;SDS011;5707;49.588;12.148;2023-04-25T03:27:15;2.70;;;2.50;;
11303;SDS011;5707;49.588;12.148;2023-04-25T03:29:41;2.42;;;2.28;;
11303;SDS011;5707;49.588;12.148;2023-04-25T03:32:06;2.97;;;2.78;;
11303;SDS011;5707;49.588;12.148;2023-04-25T03:34:32;3.22;;;2.78;;
11303;SDS011;5707;49.588;12.148;2023-04-25T03:36:58;3.17;;;2.97;;
11303;SDS011;5707;49.588;12.148;2023-04-25T03:39:24;2.97;;;2.67;;
11303;SDS011;5707;49.588;12.148;2023-04-25T03:41:49;2.78;;;2.45;;
11303;SDS011;5707;49.588;12.148;2023-04-25T03:44:15;2.97;;;2.78;;
11303;SDS011;5707;49.588;12.148;2023-04-25T03:46:40;3.13;;;2.92;;
11303;SDS011;5707;49.588;12.148;2023-04-25T03:49:06;3.22;;;3.03;;
11303;SDS011;5707;49.588;12.148;2023-04-25T03:51:31;3.80;;;3.50;;
11303;SDS011;5707;49.588;12.148;2023-04-25T03:53:57;3.85;;;3.55;;
11303;SDS011;5707;49.588;12.148;2023-04-25T03:56:23;3.00;;;2.80;;
11303;SDS011;5707;49.588;12.148;2023-04-25T03:58:48;3.45;;;3.25;;
11303;SDS011;5707;49.588;12.148;2023-04-25T04:01:14;3.22;;;3.03;;
11303;SDS011;5707;49.588;12.148;2023-04-25T04:03:39;2.83;;;2.63;;
11303;SDS011;5707;49.588;12.148;2023-04-25T04:06:05;2.42;;;2.28;;
11303;SDS011;5707;49.588;12.148;2023-04-25T04:08:32;3.35;;;3.13;;
11303;SDS011;5707;49.588;12.148;2023-04-25T04:10:58;2.60;;;2.50;;
11303;SDS011;5707;49.588;12.148;2023-04-25T04:13:25;2.80;;;2.60;;
11303;SDS011;5707;49.588;12.148;2023-04-25T04:15:52;3.33;;;2.97;;
11303;SDS011;5707;49.588;12.148;2023-04-25T04:18:18;2.90;;;2.70;;
11303;SDS011;5707;49.588;12.148;2023-04-25T04:20:43;3.05;;;2.85;;
11303;SDS011;5707;49.588;12.148;2023-04-25T04:23:09;4.68;;;2.65;;
11303;SDS011;5707;49.588;12.148;2023-04-25T04:25:35;3.58;;;2.75;;
11303;SDS011;5707;49.588;12.148;2023-04-25T04:28:01;3.47;;;3.20;;
11303;SDS011;5707;49.588;12.148;2023-04-25T04:30:27;3.03;;;2.83;;
11303;SDS011;5707;49.588;12.148;2023-04-25T04:32:54;4.05;;;3.75;;
11303;SDS011;5707;49.588;12.148;2023-04-25T04:35:20;3.63;;;3.40;;
11303;SDS011;5707;49.588;12.148;2023-04-25T04:37:46;3.83;;;3.53;;
11303;SDS011;5707;49.588;12.148;2023-04-25T04:40:12;3.72;;;3.30;;
11303;SDS011;5707;49.588;12.148;2023-04-25T04:42:40;3.67;;;3.45;;
11303;SDS011;5707;49.588;12.148;2023-04-25T04:45:06;3.63;;;3.17;;
11303;SDS011;5707;49.588;12.148;2023-04-25T04:47:33;3.55;;;3.30;;
11303;SDS011;5707;49.588;12.148;2023-04-25T04:49:59;2.90;;;2.70;;
11303;SDS011;5707;49.588;12.148;2023-04-25T04:52:24;3.40;;;3.10;;
11303;SDS011;5707;49.588;12.148;2023-04-25T04:54:50;2.88;;;2.67;;
11303;SDS011;5707;49.588;12.148;2023-04-25T04:57:15;3.03;;;2.85;;
11303;SDS011;5707;49.588;12.148;2023-04-25T04:59:41;3.80;;;3.55;;
11303;SDS011;5707;49.588;12.148;2023-04-25T05:02:07;3.20;;;3.00;;
11303;SDS011;5707;49.588;12.148;2023-04-25T05:04:32;2.95;;;2.75;;
11303;SDS011;5707;49.588;12.148;2023-04-25T05:06:58;3.92;;;3.28;;
11303;SDS011;5707;49.588;12.148;2023-04-25T05:09:24;3.63;;;3.33;;
11303;SDS011;5707;49.588;12.148;2023-04-25T05:11:50;2.90;;;2.70;;
11303;SDS011;5707;49.588;12.148;2023-04-25T05:14:16;3.65;;;3.35;;
11303;SDS011;5707;49.588;12.148;2023-04-25T05:16:42;3.08;;;2.88;;
11303;SDS011;5707;49.588;12.148;2023-04-25T05:19:08;3.85;;;3.55;;
11303;SDS011;5707;49.588;12.148;2023-04-25T05:21:34;3.38;;;3.17;;
11303;SDS011;5707;49.588;12.148;2023-04-25T05:24:00;4.47;;;4.18;;
11303;SDS011;5707;49.588;12.148;2023-04-25T05:26:26;4.30;;;4.00;;
11303;SDS011;5707;49.588;12.148;2023-04-25T05:28:56;4.60;;;4.18;;
11303;SDS011;5707;49.588;12.148;2023-04-25T05:31:22;3.83;;;3.63;;
11303;SDS011;5707;49.588;12.148;2023-04-25T05:33:47;3.60;;;3.30;;
11303;SDS011;5707;49.588;12.148;2023-04-25T05:36:13;3.85;;;3.65;;
11303;SDS011;5707;49.588;12.148;2023-04-25T05:38:38;3.80;;;3.60;;
11303;SDS011;5707;49.588;12.148;2023-04-25T05:41:04;3.80;;;3.60;;
11303;SDS011;5707;49.588;12.148;2023-04-25T05:43:30;3.70;;;3.40;;
11303;SDS011;5707;49.588;12.148;2023-04-25T05:45:55;3.03;;;2.83;;
11303;SDS011;5707;49.588;12.148;2023-04-25T05:48:21;3.55;;;3.35;;
11303;SDS011;5707;49.588;12.148;2023-04-25T05:50:47;3.10;;;2.90;;
11303;SDS011;5707;49.588;12.148;2023-04-25T05:53:12;3.13;;;2.92;;
11303;SDS011;5707;49.588;12.148;2023-04-25T05:55:38;3.88;;;3.67;;
11303;SDS011;5707;49.588;12.148;2023-04-25T05:58:04;3.55;;;3.25;;
11303;SDS011;5707;49.588;12.148;2023-04-25T06:00:31;3.50;;;3.30;;
11303;SDS011;5707;49.588;12.148;2023-04-25T06:02:57;3.35;;;3.05;;
11303;SDS011;5707;49.588;12.148;2023-04-25T06:05:23;3.78;;;3.58;;
11303;SDS011;5707;49.588;12.148;2023-04-25T06:07:48;3.75;;;3.45;;
11303;SDS011;5707;49.588;12.148;2023-04-25T06:10:14;3.72;;;3.53;;
11303;SDS011;5707;49.588;12.148;2023-04-25T06:12:40;2.92;;;2.83;;
11303;SDS011;5707;49.588;12.148;2023-04-25T06:15:06;3.63;;;3.42;;
11303;SDS011;5707;49.588;12.148;2023-04-25T06:17:32;4.00;;;3.67;;
11303;SDS011;5707;49.588;12.148;2023-04-25T06:19:58;3.95;;;3.65;;
11303;SDS011;5707;49.588;12.148;2023-04-25T06:22:23;3.67;;;3.38;;
11303;SDS011;5707;49.588;12.148;2023-04-25T06:24:49;3.35;;;3.15;;
11303;SDS011;5707;49.588;12.148;2023-04-25T06:27:14;3.45;;;3.20;;
11303;SDS011;5707;49.588;12.148;2023-04-25T06:29:40;3.17;;;2.97;;
11303;SDS011;5707;49.588;12.148;2023-04-25T06:32:05;2.55;;;2.35;;
11303;SDS011;5707;49.588;12.148;2023-04-25T06:34:31;3.03;;;2.83;;
11303;SDS011;5707;49.588;12.148;2023-04-25T06:36:57;3.22;;;3.03;;
11303;SDS011;5707;49.588;12.148;2023-04-25T06:39:22;3.75;;;2.42;;
11303;SDS011;5707;49.588;12.148;2023-04-25T06:41:49;2.97;;;2.72;;
11303;SDS011;5707;49.588;12.148;2023-04-25T06:44:16;3.55;;;3.25;;
11303;SDS011;5707;49.588;12.148;2023-04-25T06:46:41;3.78;;;3.22;;
11303;SDS011;5707;49.588;12.148;2023-04-25T06:49:07;4.00;;;3.60;;
11303;SDS011;5707;49.588;12.148;2023-04-25T06:51:32;3.88;;;3.58;;
11303;SDS011;5707;49.588;12.148;2023-04-25T06:53:58;3.17;;;2.90;;
11303;SDS011;5707;49.588;12.148;2023-04-25T06:56:24;3.22;;;3.03;;
11303;SDS011;5707;49.588;12.148;2023-04-25T06:58:49;3.10;;;2.90;;
11303;SDS011;5707;49.588;12.148;2023-04-25T07:01:15;2.80;;;2.47;;
11303;SDS011;5707;49.588;12.148;2023-04-25T07:03:40;2.67;;;2.47;;
11303;SDS011;5707;49.588;12.148;2023-04-25T07:06:06;2.30;;;2.20;;
11303;SDS011;5707;49.588;12.148;2023-04-25T07:08:32;2.40;;;2.20;;
11303;SDS011;5707;49.588;12.148;2023-04-25T07:10:57;2.78;;;2.05;;
11303;SDS011;5707;49.588;12.148;2023-04-25T07:13:23;1.63;;;1.52;;
11303;SDS011;5707;49.588;12.148;2023-04-25T07:15:48;1.70;;;1.60;;
11303;SDS011;5707;49.588;12.148;2023-04-25T07:18:14;1.67;;;1.58;;
11303;SDS011;5707;49.588;12.148;2023-04-25T07:20:40;1.58;;;1.48;;
11303;SDS011;5707;49.588;12.148;2023-04-25T07:23:06;1.30;;;1.30;;
11303;SDS011;5707;49.588;12.148;2023-04-25T07:25:31;1.48;;;1.38;;
11303;SDS011;5707;49.588;12.148;2023-04-25T07:27:57;1.35;;;1.25;;
11303;SDS011;5707;49.588;12.148;2023-04-25T07:30:23;1.30;;;1.20;;
11303;SDS011;5707;49.588;12.148;2023-04-25T07:32:49;1.40;;;1.40;;
11303;SDS011;5707;49.588;12.148;2023-04-25T07:35:15;1.13;;;1.05;;
11303;SDS011;5707;49.588;12.148;2023-04-25T07:37:41;1.67;;;1.30;;
11303;SDS011;5707;49.588;12.148;2023-04-25T07:40:07;1.23;;;1.17;;
11303;SDS011;5707;49.588;12.148;2023-04-25T07:42:34;1.42;;;1.33;;
11303;SDS011;5707;49.588;12.148;2023-04-25T07:45:00;0.98;;;0.85;;
11303;SDS011;5707;49.588;12.148;2023-04-25T07:47:26;1.20;;;0.57;;
11303;SDS011;5707;49.588;12.148;2023-04-25T07:49:52;0.45;;;0.43;;
11303;SDS011;5707;49.588;12.148;2023-04-25T07:52:17;0.70;;;0.70;;
11303;SDS011;5707;49.588;12.148;2023-04-25T07:54:43;1.77;;;0.80;;
11303;SDS011;5707;49.588;12.148;2023-04-25T07:57:09;1.00;;;0.60;;
11303;SDS011;5707;49.588;12.148;2023-04-25T07:59:34;1.33;;;1.17;;
11303;SDS011;5707;49.588;12.148;2023-04-25T08:02:00;1.10;;;1.00;;
11303;SDS011;5707;49.588;12.148;2023-04-25T08:04:26;1.00;;;1.00;;
11303;SDS011;5707;49.588;12.148;2023-04-25T08:06:52;1.15;;;0.95;;
11303;SDS011;5707;49.588;12.148;2023-04-25T08:09:18;1.73;;;1.10;;
11303;SDS011;5707;49.588;12.148;2023-04-25T08:11:44;0.80;;;0.75;;
11303;SDS011;5707;49.588;12.148;2023-04-25T08:14:10;1.17;;;1.08;;
11303;SDS011;5707;49.588;12.148;2023-04-25T08:16:36;1.45;;;1.00;;
11303;SDS011;5707;49.588;12.148;2023-04-25T08:19:02;1.25;;;0.65;;
11303;SDS011;5707;49.588;12.148;2023-04-25T08:21:27;0.80;;;0.77;;
11303;SDS011;5707;49.588;12.148;2023-04-25T08:23:53;1.10;;;0.60;;
11303;SDS011;5707;49.588;12.148;2023-04-25T08:26:19;1.25;;;0.90;;
11303;SDS011;5707;49.588;12.148;2023-04-25T08:28:45;2.10;;;1.08;;
11303;SDS011;5707;49.588;12.148;2023-04-25T08:31:11;0.90;;;0.90;;
11303;SDS011;5707;49.588;12.148;2023-04-25T08:33:36;1.63;;;0.90;;
11303;SDS011;5707;49.588;12.148;2023-04-25T08:36:02;1.70;;;0.80;;
11303;SDS011;5707;49.588;12.148;2023-04-25T08:38:28;1.15;;;1.05;;
11303;SDS011;5707;49.588;12.148;2023-04-25T08:40:53;1.20;;;1.10;;
11303;SDS011;5707;49.588;12.148;2023-04-25T08:43:21;1.23;;;1.13;;
11303;SDS011;5707;49.588;12.148;2023-04-25T08:45:49;1.08;;;1.00;;
11303;SDS011;5707;49.588;12.148;2023-04-25T08:48:18;1.20;;;1.02;;
11303;SDS011;5707;49.588;12.148;2023-04-25T08:50:51;1.30;;;1.20;;
11303;SDS011;5707;49.588;12.148;2023-04-25T08:53:31;1.15;;;1.10;;
11303;SDS011;5707;49.588;12.148;2023-04-25T08:55:58;1.35;;;1.25;;
11303;SDS011;5707;49.588;12.148;2023-04-25T08:58:26;1.48;;;1.38;;
11303;SDS011;5707;49.588;12.148;2023-04-25T09:00:52;1.45;;;1.35;;
11303;SDS011;5707;49.588;12.148;2023-04-25T09:03:18;2.00;;;1.50;;
11303;SDS011;5707;49.588;12.148;2023-04-25T09:05:44;2.08;;;1.52;;
11303;SDS011;5707;49.588;12.148;2023-04-25T09:08:10;1.50;;;1.40;;
11303;SDS011;5707;49.588;12.148;2023-04-25T09:10:36;1.50;;;1.40;;
11303;SDS011;5707;49.588;12.148;2023-04-25T09:13:10;1.65;;;1.55;;
11303;SDS011;5707;49.588;12.148;2023-04-25T09:15:47;1.63;;;1.52;;
11303;SDS011;5707;49.588;12.148;2023-04-25T09:18:21;1.85;;;1.75;;
11303;SDS011;5707;49.588;12.148;2023-04-25T09:20:48;2.00;;;1.80;;
11303;SDS011;5707;49.588;12.148;2023-04-25T09:23:14;1.70;;;1.60;;
11303;SDS011;5707;49.588;12.148;2023-04-25T09:25:40;1.30;;;1.20;;
11303;SDS011;5707;49.588;12.148;2023-04-25T09:28:07;2.05;;;1.25;;
11303;SDS011;5707;49.588;12.148;2023-04-25T09:30:33;2.00;;;1.60;;
11303;SDS011;5707;49.588;12.148;2023-04-25T09:33:04;1.48;;;1.38;;
11303;SDS011;5707;49.588;12.148;2023-04-25T09:35:37;1.63;;;1.33;;
11303;SDS011;5707;49.588;12.148;2023-04-25T09:38:12;1.45;;;1.35;;
11303;SDS011;5707;49.588;12.148;2023-04-25T09:40:42;1.30;;;1.20;;
11303;SDS011;5707;49.588;12.148;2023-04-25T09:43:30;2.50;;;1.70;;
11303;SDS011;5707;49.588;12.148;2023-04-25T09:45:55;2.17;;;1.55;;
11303;SDS011;5707;49.588;12.148;2023-04-25T09:48:24;1.90;;;1.80;;
11303;SDS011;5707;49.588;12.148;2023-04-25T09:53:29;1.50;;;1.40;;
11303;SDS011;5707;49.588;12.148;2023-04-25T09:55:55;1.40;;;1.38;;
11303;SDS011;5707;49.588;12.148;2023-04-25T09:58:21;1.65;;;1.55;;
11303;SDS011;5707;49.588;12.148;2023-04-25T10:00:49;1.92;;;1.70;;
11303;SDS011;5707;49.588;12.148;2023-04-25T10:03:17;3.50;;;2.10;;
11303;SDS011;5707;49.588;12.148;2023-04-25T10:05:43;1.90;;;1.55;;
11303;SDS011;5707;49.588;12.148;2023-04-25T10:08:09;1.85;;;1.75;;
11303;SDS011;5707;49.588;12.148;2023-04-25T10:10:36;2.20;;;2.00;;
11303;SDS011;5707;49.588;12.148;2023-04-25T10:13:05;1.80;;;1.70;;
11303;SDS011;5707;49.588;12.148;2023-04-25T10:15:34;1.95;;;1.75;;
11303;SDS011;5707;49.588;12.148;2023-04-25T10:18:01;1.77;;;1.65;;
11303;SDS011;5707;49.588;12.148;2023-04-25T10:20:27;2.25;;;1.60;;
11303;SDS011;5707;49.588;12.148;2023-04-25T10:22:54;1.40;;;1.30;;
11303;SDS011;5707;49.588;12.148;2023-04-25T10:25:23;2.15;;;1.95;;
11303;SDS011;5707;49.588;12.148;2023-04-25T10:27:52;2.75;;;1.88;;
11303;SDS011;5707;49.588;12.148;2023-04-25T10:30:19;1.70;;;1.60;;
11303;SDS011;5707;49.588;12.148;2023-04-25T10:32:45;1.58;;;1.48;;
11303;SDS011;5707;49.588;12.148;2023-04-25T10:38:15;1.75;;;1.65;;
11303;SDS011;5707;49.588;12.148;2023-04-25T10:40:35;1.63;;;1.52;;
11303;SDS011;5707;49.588;12.148;2023-04-25T10:45:59;2.40;;;1.20;;
11303;SDS011;5707;49.588;12.148;2023-04-25T10:48:25;1.67;;;1.58;;
11303;SDS011;5707;49.588;12.148;2023-04-25T10:51:10;2.88;;;1.98;;
11303;SDS011;5707;49.588;12.148;2023-04-25T10:53:36;2.47;;;1.85;;
11303;SDS011;5707;49.588;12.148;2023-04-25T10:56:11;1.95;;;1.77;;
11303;SDS011;5707;49.588;12.148;2023-04-25T10:58:47;1.98;;;1.80;;
11303;SDS011;5707;49.588;12.148;2023-04-25T11:01:13;1.30;;;1.20;;
11303;SDS011;5707;49.588;12.148;2023-04-25T11:03:40;1.88;;;1.30;;
11303;SDS011;5707;49.588;12.148;2023-04-25T11:06:15;1.33;;;1.23;;
11303;SDS011;5707;49.588;12.148;2023-04-25T11:08:53;1.38;;;1.27;;
11303;SDS011;5707;49.588;12.148;2023-04-25T11:11:18;1.30;;;1.20;;
11303;SDS011;5707;49.588;12.148;2023-04-25T11:13:48;1.00;;;1.00;;
11303;SDS011;5707;49.588;12.148;2023-04-25T11:16:14;1.00;;;1.00;;
11303;SDS011;5707;49.588;12.148;2023-04-25T11:18:43;1.30;;;1.30;;
11303;SDS011;5707;49.588;12.148;2023-04-25T11:21:09;1.38;;;1.27;;
11303;SDS011;5707;49.588;12.148;2023-04-25T11:23:36;1.50;;;1.40;;
11303;SDS011;5707;49.588;12.148;2023-04-25T11:26:02;1.70;;;1.35;;
11303;SDS011;5707;49.588;12.148;2023-04-25T11:28:28;1.35;;;1.25;;
11303;SDS011;5707;49.588;12.148;2023-04-25T11:30:54;1.80;;;1.27;;
11303;SDS011;5707;49.588;12.148;2023-04-25T11:33:24;1.35;;;1.17;;
11303;SDS011;5707;49.588;12.148;2023-04-25T11:35:50;1.80;;;1.00;;
11303;SDS011;5707;49.588;12.148;2023-04-25T11:38:21;2.42;;;1.45;;
11303;SDS011;5707;49.588;12.148;2023-04-25T11:40:51;1.73;;;1.30;;
11303;SDS011;5707;49.588;12.148;2023-04-25T11:43:17;1.17;;;1.17;;
11303;SDS011;5707;49.588;12.148;2023-04-25T11:45:49;2.45;;;1.10;;
11303;SDS011;5707;49.588;12.148;2023-04-25T11:48:16;1.00;;;0.90;;
11303;SDS011;5707;49.588;12.148;2023-04-25T11:50:42;2.80;;;1.00;;
11303;SDS011;5707;49.588;12.148;2023-04-25T11:53:07;0.90;;;0.90;;
11303;SDS011;5707;49.588;12.148;2023-04-25T11:55:33;1.00;;;1.00;;
11303;SDS011;5707;49.588;12.148;2023-04-25T11:57:59;1.27;;;1.13;;
11303;SDS011;5707;49.588;12.148;2023-04-25T12:00:26;1.10;;;0.88;;
11303;SDS011;5707;49.588;12.148;2023-04-25T12:02:52;1.20;;;1.10;;
11303;SDS011;5707;49.588;12.148;2023-04-25T12:05:19;1.20;;;1.10;;
11303;SDS011;5707;49.588;12.148;2023-04-25T12:07:48;1.35;;;1.25;;
11303;SDS011;5707;49.588;12.148;2023-04-25T12:10:17;1.25;;;1.15;;
11303;SDS011;5707;49.588;12.148;2023-04-25T12:12:45;1.35;;;1.25;;
11303;SDS011;5707;49.588;12.148;2023-04-25T12:17:40;1.10;;;0.90;;
11303;SDS011;5707;49.588;12.148;2023-04-25T12:20:10;1.63;;;1.00;;
11303;SDS011;5707;49.588;12.148;2023-04-25T12:22:41;1.00;;;1.00;;
11303;SDS011;5707;49.588;12.148;2023-04-25T12:25:11;1.15;;;0.90;;
11303;SDS011;5707;49.588;12.148;2023-04-25T12:27:38;1.15;;;1.10;;
11303;SDS011;5707;49.588;12.148;2023-04-25T12:30:07;1.20;;;1.08;;
11303;SDS011;5707;49.588;12.148;2023-04-25T12:32:33;0.90;;;0.90;;
11303;SDS011;5707;49.588;12.148;2023-04-25T12:35:00;1.10;;;1.00;;
11303;SDS011;5707;49.588;12.148;2023-04-25T12:37:26;2.22;;;0.90;;
11303;SDS011;5707;49.588;12.148;2023-04-25T12:39:53;2.03;;;0.98;;
11303;SDS011;5707;49.588;12.148;2023-04-25T12:42:19;1.08;;;1.00;;
11303;SDS011;5707;49.588;12.148;2023-04-25T12:44:44;1.02;;;0.95;;
11303;SDS011;5707;49.588;12.148;2023-04-25T12:47:11;1.25;;;1.00;;
11303;SDS011;5707;49.588;12.148;2023-04-25T12:49:37;1.48;;;1.23;;
11303;SDS011;5707;49.588;12.148;2023-04-25T12:52:02;1.80;;;1.05;;
11303;SDS011;5707;49.588;12.148;2023-04-25T12:54:28;1.52;;;1.08;;
11303;SDS011;5707;49.588;12.148;2023-04-25T12:56:53;1.52;;;1.25;;
11303;SDS011;5707;49.588;12.148;2023-04-25T12:59:19;2.15;;;0.93;;
11303;SDS011;5707;49.588;12.148;2023-04-25T13:01:46;1.77;;;1.15;;
11303;SDS011;5707;49.588;12.148;2023-04-25T13:04:11;2.10;;;1.27;;
11303;SDS011;5707;49.588;12.148;2023-04-25T13:06:37;1.08;;;0.65;;
11303;SDS011;5707;49.588;12.148;2023-04-25T13:09:03;0.80;;;0.65;;
11303;SDS011;5707;49.588;12.148;2023-04-25T13:11:28;2.47;;;0.80;;
11303;SDS011;5707;49.588;12.148;2023-04-25T13:13:55;0.75;;;0.65;;
11303;SDS011;5707;49.588;12.148;2023-04-25T13:16:21;0.38;;;0.38;;
11303;SDS011;5707;49.588;12.148;2023-04-25T13:18:47;0.50;;;0.50;;
11303;SDS011;5707;49.588;12.148;2023-04-25T13:21:13;5.82;;;0.75;;
11303;SDS011;5707;49.588;12.148;2023-04-25T13:23:40;1.27;;;0.60;;
11303;SDS011;5707;49.588;12.148;2023-04-25T13:26:07;0.50;;;0.50;;
11303;SDS011;5707;49.588;12.148;2023-04-25T13:28:33;0.40;;;0.40;;
11303;SDS011;5707;49.588;12.148;2023-04-25T13:30:58;1.17;;;0.80;;
11303;SDS011;5707;49.588;12.148;2023-04-25T13:33:24;0.55;;;0.55;;
11303;SDS011;5707;49.588;12.148;2023-04-25T13:35:50;0.40;;;0.40;;
11303;SDS011;5707;49.588;12.148;2023-04-25T13:38:21;0.50;;;0.50;;
11303;SDS011;5707;49.588;12.148;2023-04-25T13:40:48;0.47;;;0.40;;
11303;SDS011;5707;49.588;12.148;2023-04-25T13:43:14;2.55;;;0.70;;
11303;SDS011;5707;49.588;12.148;2023-04-25T13:45:40;0.40;;;0.40;;
11303;SDS011;5707;49.588;12.148;2023-04-25T13:48:06;0.65;;;0.40;;
11303;SDS011;5707;49.588;12.148;2023-04-25T13:50:31;0.47;;;0.47;;
11303;SDS011;5707;49.588;12.148;2023-04-25T13:52:57;0.68;;;0.40;;
11303;SDS011;5707;49.588;12.148;2023-04-25T13:55:22;0.80;;;0.43;;
11303;SDS011;5707;49.588;12.148;2023-04-25T13:57:48;0.63;;;0.50;;
11303;SDS011;5707;49.588;12.148;2023-04-25T14:00:13;0.22;;;0.22;;
11303;SDS011;5707;49.588;12.148;2023-04-25T14:02:39;0.40;;;0.40;;
11303;SDS011;5707;49.588;12.148;2023-04-25T14:05:05;0.77;;;0.60;;
11303;SDS011;5707;49.588;12.148;2023-04-25T14:07:32;0.75;;;0.52;;
11303;SDS011;5707;49.588;12.148;2023-04-25T14:09:59;0.57;;;0.50;;
11303;SDS011;5707;49.588;12.148;2023-04-25T14:12:25;0.95;;;0.65;;
11303;SDS011;5707;49.588;12.148;2023-04-25T14:14:51;0.70;;;0.30;;
11303;SDS011;5707;49.588;12.148;2023-04-25T14:17:18;0.40;;;0.40;;
11303;SDS011;5707;49.588;12.148;2023-04-25T14:19:44;0.73;;;0.68;;
11303;SDS011;5707;49.588;12.148;2023-04-25T14:22:10;0.55;;;0.50;;
11303;SDS011;5707;49.588;12.148;2023-04-25T14:24:36;0.80;;;0.52;;
11303;SDS011;5707;49.588;12.148;2023-04-25T14:27:01;0.85;;;0.60;;
11303;SDS011;5707;49.588;12.148;2023-04-25T14:29:27;0.40;;;0.40;;
11303;SDS011;5707;49.588;12.148;2023-04-25T14:31:53;0.70;;;0.55;;
11303;SDS011;5707;49.588;12.148;2023-04-25T14:34:19;1.60;;;0.43;;
11303;SDS011;5707;49.588;12.148;2023-04-25T14:36:45;1.15;;;0.60;;
11303;SDS011;5707;49.588;12.148;2023-04-25T14:39:10;0.77;;;0.60;;
11303;SDS011;5707;49.588;12.148;2023-04-25T14:41:38;0.82;;;0.65;;
11303;SDS011;5707;49.588;12.148;2023-04-25T14:44:04;0.95;;;0.47;;
11303;SDS011;5707;49.588;12.148;2023-04-25T14:46:30;1.65;;;0.60;;
11303;SDS011;5707;49.588;12.148;2023-04-25T14:48:55;0.88;;;0.77;;
11303;SDS011;5707;49.588;12.148;2023-04-25T14:51:21;0.57;;;0.50;;
11303;SDS011;5707;49.588;12.148;2023-04-25T14:53:47;0.57;;;0.57;;